createdAt,value
2023-11-30T00:00:20.154Z,99126.06
2023-11-30T00:02:46.766Z,99059.34
2023-11-30T00:05:13.500Z,99122.47
2023-11-30T00:07:40.047Z,99124.59
2023-11-30T00:10:07.227Z,99121.66
2023-11-30T00:12:33.885Z,99114.19
2023-11-30T00:15:00.361Z,99117.91
2023-11-30T00:17:26.878Z,99108.63
2023-11-30T00:19:53.407Z,99078.03
2023-11-30T00:22:19.909Z,99110.63
2023-11-30T00:24:46.433Z,99114.97
2023-11-30T00:27:12.961Z,99124.75
2023-11-30T00:29:39.478Z,99118.03
2023-11-30T00:32:06.348Z,99082.00
2023-11-30T00:34:32.824Z,99107.59
2023-11-30T00:36:59.283Z,99118.66
2023-11-30T00:39:25.846Z,99111.56
2023-11-30T00:41:52.473Z,99115.53
2023-11-30T00:44:19.625Z,99107.50
2023-11-30T00:46:46.167Z,99116.78
2023-11-30T00:49:12.734Z,99109.88
2023-11-30T00:51:39.230Z,99107.16
2023-11-30T00:54:05.952Z,99073.63
2023-11-30T00:56:32.441Z,99097.47
2023-11-30T00:58:58.933Z,99106.44
2023-11-30T01:01:25.387Z,99094.75
2023-11-30T01:03:51.875Z,99103.09
2023-11-30T01:06:18.427Z,99098.19
2023-11-30T01:08:45.042Z,99104.63
2023-11-30T01:11:11.511Z,99095.03
2023-11-30T01:13:38.015Z,99102.41
2023-11-30T01:16:04.898Z,99091.91
2023-11-30T01:18:31.520Z,99108.28
2023-11-30T01:20:58.115Z,99105.66
2023-11-30T01:23:24.682Z,99113.19
2023-11-30T01:25:51.229Z,99069.91
2023-11-30T01:28:17.685Z,99053.22
2023-11-30T01:30:44.264Z,99071.72
2023-11-30T01:33:10.887Z,99084.00
2023-11-30T01:35:37.602Z,99085.84
2023-11-30T01:38:04.170Z,99072.03
2023-11-30T01:40:31.525Z,99079.09
2023-11-30T01:42:57.995Z,99072.31
2023-11-30T01:45:24.549Z,99075.56
2023-11-30T01:47:51.297Z,99070.97
2023-11-30T01:50:18.444Z,99075.78
2023-11-30T01:52:45.326Z,99075.75
2023-11-30T01:55:13.361Z,99016.47
2023-11-30T01:57:40.087Z,99083.78
2023-11-30T02:00:07.918Z,99073.47
2023-11-30T02:02:35.696Z,99083.31
2023-11-30T02:05:02.224Z,99050.78
2023-11-30T02:07:28.780Z,99069.59
2023-11-30T02:09:55.375Z,99078.50
2023-11-30T02:12:21.934Z,99069.41
2023-11-30T02:14:48.463Z,99068.94
2023-11-30T02:17:14.932Z,99070.13
2023-11-30T02:19:41.467Z,99073.69
2023-11-30T02:22:08.528Z,99077.34
2023-11-30T02:24:35.213Z,99067.41
2023-11-30T02:27:01.718Z,99065.78
2023-11-30T02:29:28.245Z,99068.34
2023-11-30T02:31:54.789Z,99061.75
2023-11-30T02:34:21.305Z,99055.00
2023-11-30T02:36:47.763Z,99055.00
2023-11-30T02:39:14.356Z,99055.47
2023-11-30T02:41:40.910Z,99060.41
2023-11-30T02:44:09.237Z,99046.91
2023-11-30T02:46:35.783Z,99042.31
2023-11-30T02:49:02.358Z,99051.25
2023-11-30T02:51:28.968Z,99047.56
2023-11-30T02:53:55.551Z,99044.13
2023-11-30T02:56:22.080Z,99044.41
2023-11-30T02:58:48.536Z,99025.81
2023-11-30T03:01:15.025Z,99022.63
2023-11-30T03:03:41.863Z,98962.97
2023-11-30T03:06:12.614Z,99030.47
2023-11-30T03:08:39.333Z,99024.06
2023-11-30T03:11:06.006Z,99010.63
2023-11-30T03:13:32.657Z,99009.91
2023-11-30T03:15:59.156Z,99000.56
2023-11-30T03:18:25.731Z,99005.31
2023-11-30T03:20:52.461Z,99004.19
2023-11-30T03:23:19.052Z,99002.31
2023-11-30T03:25:46.965Z,99009.50
2023-11-30T03:28:13.959Z,99010.66
2023-11-30T03:30:40.576Z,99007.63
2023-11-30T03:33:07.245Z,99011.06
2023-11-30T03:35:33.889Z,99000.44
2023-11-30T03:38:00.385Z,99015.97
2023-11-30T03:40:26.872Z,99006.28
2023-11-30T03:42:53.361Z,98974.53
2023-11-30T03:45:19.878Z,98979.63
2023-11-30T03:47:46.444Z,98956.72
2023-11-30T03:50:12.967Z,98972.41
2023-11-30T03:52:39.517Z,98954.16
2023-11-30T03:55:06.458Z,98952.53
2023-11-30T03:57:33.025Z,98938.75
2023-11-30T03:59:59.634Z,98941.88
2023-11-30T04:02:26.259Z,98923.16
2023-11-30T04:04:53.017Z,98956.47
2023-11-30T04:07:19.608Z,98944.25
2023-11-30T04:09:47.628Z,98946.72
2023-11-30T04:12:14.157Z,98934.66
2023-11-30T04:14:40.659Z,98917.28
2023-11-30T04:17:07.151Z,98926.97
2023-11-30T04:19:33.818Z,98925.44
2023-11-30T04:22:00.370Z,98891.59
2023-11-30T04:24:26.970Z,98919.41
2023-11-30T04:26:54.463Z,98918.31
2023-11-30T04:29:20.965Z,98901.22
2023-11-30T04:31:47.506Z,98883.69
2023-11-30T04:34:13.971Z,98888.47
2023-11-30T04:36:40.502Z,98902.06
2023-11-30T04:39:07.456Z,98858.34
2023-11-30T04:41:34.085Z,98883.28
2023-11-30T04:44:00.545Z,98882.22
2023-11-30T04:46:27.734Z,98886.84
2023-11-30T04:48:55.751Z,98886.47
2023-11-30T04:51:23.074Z,98863.84
2023-11-30T04:53:50.213Z,98852.47
2023-11-30T04:56:16.699Z,98883.25
2023-11-30T04:58:43.960Z,98870.13
2023-11-30T05:01:10.646Z,98861.34
2023-11-30T05:03:37.406Z,98856.19
2023-11-30T05:06:04.329Z,98856.53
2023-11-30T05:08:30.836Z,98847.03
2023-11-30T05:10:58.782Z,98845.53
2023-11-30T05:13:25.552Z,98859.91
2023-11-30T05:15:52.083Z,98868.34
2023-11-30T05:18:19.402Z,98865.88
2023-11-30T05:20:45.940Z,98860.94
2023-11-30T05:23:12.523Z,98862.28
2023-11-30T05:25:38.996Z,98866.34
2023-11-30T05:28:07.447Z,98866.56
2023-11-30T05:30:34.198Z,98866.28
2023-11-30T05:33:00.876Z,98860.00
2023-11-30T05:35:27.457Z,98859.41
2023-11-30T05:37:54.467Z,98850.81
2023-11-30T05:40:21.144Z,98853.09
2023-11-30T05:42:48.717Z,98820.59
2023-11-30T05:45:15.703Z,98838.66
2023-11-30T05:47:42.425Z,98846.69
2023-11-30T05:50:10.872Z,98857.25
2023-11-30T05:52:37.478Z,98850.88
2023-11-30T05:55:05.482Z,98849.13
2023-11-30T05:57:32.045Z,98833.22
2023-11-30T05:59:58.824Z,98802.34
2023-11-30T06:02:25.500Z,98840.25
2023-11-30T06:04:55.465Z,98836.34
2023-11-30T06:07:24.510Z,98832.75
2023-11-30T06:09:51.794Z,98832.50
2023-11-30T06:12:19.696Z,98828.59
2023-11-30T06:14:46.189Z,98803.00
2023-11-30T06:17:13.321Z,98827.41
2023-11-30T06:19:40.596Z,98791.19
2023-11-30T06:22:07.470Z,98819.34
2023-11-30T06:24:35.358Z,98821.59
2023-11-30T06:27:02.791Z,98822.28
2023-11-30T06:29:30.478Z,98823.91
2023-11-30T06:32:03.728Z,98826.75
2023-11-30T06:34:30.256Z,98822.00
2023-11-30T06:36:57.114Z,98825.97
2023-11-30T06:39:23.640Z,98819.41
2023-11-30T06:41:52.326Z,98838.19
2023-11-30T06:44:20.076Z,98835.19
2023-11-30T06:46:47.820Z,98833.97
2023-11-30T06:49:14.417Z,98856.06
2023-11-30T06:51:41.094Z,98847.28
2023-11-30T06:54:07.708Z,98842.38
2023-11-30T06:56:34.204Z,98863.13
2023-11-30T06:59:00.678Z,98846.03
2023-11-30T07:01:27.405Z,98842.50
2023-11-30T07:03:55.429Z,98839.63
2023-11-30T07:06:22.855Z,98840.66
2023-11-30T07:08:49.431Z,98845.03
2023-11-30T07:11:16.072Z,98828.28
2023-11-30T07:13:42.623Z,98857.81
2023-11-30T07:16:09.956Z,98850.91
2023-11-30T07:18:36.476Z,98849.47
2023-11-30T07:21:04.243Z,98858.41
2023-11-30T07:23:31.075Z,98862.13
2023-11-30T07:25:59.736Z,98852.47
2023-11-30T07:28:27.388Z,98846.66
2023-11-30T07:30:53.989Z,98846.66
2023-11-30T07:33:20.625Z,98842.94
2023-11-30T07:35:47.159Z,98844.78
2023-11-30T07:38:13.735Z,98845.72
2023-11-30T07:40:40.229Z,98817.88
2023-11-30T07:43:06.825Z,98848.16
2023-11-30T07:45:33.475Z,98809.19
2023-11-30T07:48:00.812Z,98848.94
2023-11-30T07:50:28.687Z,98840.63
2023-11-30T07:52:55.385Z,98832.47
2023-11-30T07:55:22.310Z,98820.91
2023-11-30T07:57:49.697Z,98827.38
2023-11-30T08:00:16.772Z,98815.66
2023-11-30T08:02:43.877Z,98808.13
2023-11-30T08:05:10.561Z,98790.53
2023-11-30T08:07:37.115Z,98812.91
2023-11-30T08:10:06.278Z,98814.56
2023-11-30T08:12:33.007Z,98811.38
2023-11-30T08:14:59.599Z,98807.06
2023-11-30T08:17:26.425Z,98805.41
2023-11-30T08:19:53.223Z,98780.59
2023-11-30T08:22:19.715Z,98803.81
2023-11-30T08:24:46.349Z,98799.16
2023-11-30T08:27:13.047Z,98758.50
2023-11-30T08:29:39.680Z,98786.50
2023-11-30T08:32:06.842Z,98777.56
2023-11-30T08:34:33.409Z,98777.34
2023-11-30T08:37:01.136Z,98782.56
2023-11-30T08:39:29.862Z,98777.22
2023-11-30T08:41:56.822Z,98781.22
2023-11-30T08:44:26.715Z,98768.84
2023-11-30T08:46:53.856Z,98764.94
2023-11-30T08:49:20.549Z,98779.50
2023-11-30T08:51:47.257Z,98776.28
2023-11-30T08:54:14.048Z,98765.50
2023-11-30T08:56:40.566Z,98784.09
2023-11-30T08:59:07.070Z,98792.91
2023-11-30T09:01:34.116Z,98796.88
2023-11-30T09:04:06.188Z,98774.06
2023-11-30T09:06:34.915Z,98785.13
2023-11-30T09:09:02.675Z,98782.09
2023-11-30T09:11:34.523Z,98779.19
2023-11-30T09:14:01.324Z,98774.88
2023-11-30T09:16:27.895Z,98767.78
2023-11-30T09:18:57.728Z,98771.28
2023-11-30T09:21:26.948Z,98758.88
2023-11-30T09:23:53.970Z,98766.56
2023-11-30T09:26:21.911Z,98754.09
2023-11-30T09:28:48.701Z,98742.28
2023-11-30T09:31:15.537Z,98755.97
2023-11-30T09:33:43.063Z,98750.53
2023-11-30T09:36:10.232Z,98754.88
2023-11-30T09:38:36.945Z,98753.31
2023-11-30T09:41:07.163Z,98735.78
2023-11-30T09:43:34.243Z,98750.84
2023-11-30T09:46:01.250Z,98746.47
2023-11-30T09:48:28.066Z,98736.84
2023-11-30T09:50:54.661Z,98724.31
2023-11-30T09:53:21.183Z,98732.13
2023-11-30T09:55:47.704Z,98729.34
2023-11-30T09:58:16.212Z,98705.00
2023-11-30T10:00:42.930Z,98713.97
2023-11-30T10:03:10.413Z,98713.50
2023-11-30T10:05:37.093Z,98720.41
2023-11-30T10:08:04.244Z,98708.03
2023-11-30T10:10:30.835Z,98703.66
2023-11-30T10:12:57.326Z,98715.00
2023-11-30T10:15:24.180Z,98704.16
2023-11-30T10:17:51.122Z,98684.13
2023-11-30T10:20:19.745Z,98683.81
2023-11-30T10:22:46.613Z,98682.16
2023-11-30T10:25:14.219Z,98677.91
2023-11-30T10:27:42.536Z,98649.78
2023-11-30T10:30:12.833Z,98651.34
2023-11-30T10:32:40.839Z,98663.28
2023-11-30T10:35:13.557Z,98653.06
2023-11-30T10:37:46.808Z,98638.81
2023-11-30T10:40:14.209Z,98640.59
2023-11-30T10:42:47.503Z,98638.47
2023-11-30T10:45:16.628Z,98614.38
2023-11-30T10:47:44.053Z,98627.19
2023-11-30T10:50:13.360Z,98626.66
2023-11-30T10:52:44.427Z,98626.16
2023-11-30T10:55:17.619Z,98612.53
2023-11-30T10:57:45.294Z,98613.56
2023-11-30T11:00:16.866Z,98604.56
2023-11-30T11:02:46.022Z,98604.41
2023-11-30T11:05:16.922Z,98576.97
2023-11-30T11:07:50.933Z,98600.88
2023-11-30T11:10:28.071Z,98591.13
2023-11-30T11:12:58.319Z,98603.00
2023-11-30T11:15:25.245Z,98597.19
2023-11-30T11:17:55.325Z,98556.50
2023-11-30T11:20:27.022Z,98581.50
2023-11-30T11:22:57.534Z,98586.59
2023-11-30T11:25:26.259Z,98566.00
2023-11-30T11:27:52.801Z,98582.94
2023-11-30T11:30:19.384Z,98579.97
2023-11-30T11:32:46.345Z,98554.34
2023-11-30T11:35:13.053Z,98585.97
2023-11-30T11:37:39.688Z,98581.94
2023-11-30T11:40:06.553Z,98569.53
2023-11-30T11:42:33.849Z,98561.09
2023-11-30T11:45:02.797Z,98505.75
2023-11-30T11:47:30.476Z,98553.44
2023-11-30T11:49:57.215Z,98548.47
2023-11-30T11:52:24.316Z,98553.13
2023-11-30T11:55:23.730Z,98551.97
2023-11-30T11:57:52.859Z,98558.22
2023-11-30T12:00:21.561Z,98562.09
2023-11-30T12:02:49.538Z,98560.09
2023-11-30T12:05:26.739Z,98559.44
2023-11-30T12:07:57.216Z,98560.09
2023-11-30T12:10:28.021Z,98556.97
2023-11-30T12:12:54.519Z,98563.78
2023-11-30T12:15:21.016Z,98555.38
2023-11-30T12:17:47.539Z,98556.69
2023-11-30T12:20:18.936Z,98547.69
2023-11-30T12:22:46.537Z,98547.16
2023-11-30T12:25:13.607Z,98548.34
2023-11-30T12:27:40.435Z,98542.72
2023-11-30T12:30:09.464Z,98524.88
2023-11-30T12:32:38.801Z,98546.31
2023-11-30T12:35:07.788Z,98537.75
2023-11-30T12:37:36.568Z,98537.38
2023-11-30T12:40:05.002Z,98529.88
2023-11-30T12:42:32.245Z,98491.84
2023-11-30T12:44:59.303Z,98518.47
2023-11-30T12:47:26.331Z,98509.03
2023-11-30T12:49:52.874Z,98504.28
2023-11-30T12:52:21.660Z,98468.66
2023-11-30T12:54:49.932Z,98499.81
2023-11-30T12:57:16.448Z,98494.75
2023-11-30T12:59:43.282Z,98495.06
2023-11-30T13:02:11.982Z,98494.66
2023-11-30T13:04:40.721Z,98467.75
2023-11-30T13:07:07.362Z,98495.94
2023-11-30T13:09:35.890Z,98461.66
2023-11-30T13:12:03.668Z,98483.78
2023-11-30T13:14:30.670Z,98456.56
2023-11-30T13:16:57.179Z,98481.91
2023-11-30T13:19:24.880Z,98477.97
2023-11-30T13:21:53.116Z,98482.06
2023-11-30T13:24:20.248Z,98481.91
2023-11-30T13:26:48.760Z,98475.47
2023-11-30T13:29:15.296Z,98474.97
2023-11-30T13:31:41.913Z,98466.94
2023-11-30T13:34:08.607Z,98467.13
2023-11-30T13:36:35.231Z,98457.06
2023-11-30T13:39:01.794Z,98432.56
2023-11-30T13:41:28.342Z,98446.56
2023-11-30T13:43:55.168Z,98438.06
2023-11-30T13:46:22.399Z,98429.69
2023-11-30T13:48:49.264Z,98448.22
2023-11-30T13:51:16.129Z,98429.91
2023-11-30T13:53:42.812Z,98458.47
2023-11-30T13:56:10.202Z,98471.13
2023-11-30T13:58:36.681Z,98430.63
2023-11-30T14:01:04.164Z,98456.94
2023-11-30T14:03:30.995Z,98446.91
2023-11-30T14:05:58.270Z,98427.97
2023-11-30T14:08:27.616Z,98424.59
2023-11-30T14:10:54.252Z,98430.34
2023-11-30T14:13:20.784Z,98429.91
2023-11-30T14:15:47.493Z,98436.13
2023-11-30T14:18:14.363Z,98441.44
2023-11-30T14:20:41.535Z,98436.59
2023-11-30T14:23:08.508Z,98427.22
2023-11-30T14:25:35.030Z,98437.28
2023-11-30T14:28:07.552Z,98437.59
2023-11-30T14:30:38.493Z,98443.50
2023-11-30T14:33:05.394Z,98443.88
2023-11-30T14:35:32.924Z,98421.25
2023-11-30T14:38:00.125Z,98414.81
2023-11-30T14:40:26.754Z,98416.72
2023-11-30T14:42:53.658Z,98412.72
2023-11-30T14:45:20.337Z,98367.53
2023-11-30T14:47:47.961Z,98403.13
2023-11-30T14:50:16.808Z,98399.06
2023-11-30T14:52:45.972Z,98369.97
2023-11-30T14:55:13.702Z,98417.88
2023-11-30T14:57:42.436Z,98398.78
2023-11-30T15:00:13.789Z,98377.59
2023-11-30T15:02:42.326Z,98395.94
2023-11-30T15:05:15.325Z,98388.09
2023-11-30T15:07:42.546Z,98386.00
2023-11-30T15:10:12.349Z,98379.69
2023-11-30T15:12:39.400Z,98377.19
2023-11-30T15:15:13.897Z,98369.91
2023-11-30T15:17:42.818Z,98362.72
2023-11-30T15:20:10.878Z,98364.59
2023-11-30T15:22:37.620Z,98361.41
2023-11-30T15:25:07.382Z,98320.84
2023-11-30T15:27:38.357Z,98344.22
2023-11-30T15:30:05.875Z,98349.25
2023-11-30T15:32:32.534Z,98343.50
2023-11-30T15:34:59.061Z,98344.59
2023-11-30T15:37:25.687Z,98348.00
2023-11-30T15:39:54.273Z,98345.13
2023-11-30T15:42:24.025Z,98308.56
2023-11-30T15:44:50.483Z,98339.06
2023-11-30T15:47:17.443Z,98331.66
2023-11-30T15:49:44.161Z,98341.97
2023-11-30T15:52:10.669Z,98346.19
2023-11-30T15:54:40.963Z,98337.22
2023-11-30T15:57:07.654Z,98333.91
2023-11-30T15:59:34.361Z,98334.53
2023-11-30T16:02:01.583Z,98322.47
2023-11-30T16:04:28.230Z,98324.81
2023-11-30T16:06:54.864Z,98328.28
2023-11-30T16:09:21.383Z,98320.84
2023-11-30T16:11:50.602Z,98305.63
2023-11-30T16:14:17.273Z,98320.13
2023-11-30T16:16:45.431Z,98287.22
2023-11-30T16:19:12.452Z,98282.34
2023-11-30T16:21:39.168Z,98310.63
2023-11-30T16:24:06.095Z,98312.75
2023-11-30T16:26:34.684Z,98311.25
2023-11-30T16:29:01.222Z,98313.28
2023-11-30T16:31:27.783Z,98300.41
2023-11-30T16:33:54.454Z,98270.72
2023-11-30T16:36:21.097Z,98299.00
2023-11-30T16:38:47.614Z,98299.31
2023-11-30T16:41:14.996Z,98293.66
2023-11-30T16:43:41.621Z,98296.88
2023-11-30T16:46:08.642Z,98287.13
2023-11-30T16:48:36.072Z,98281.41
2023-11-30T16:51:07.409Z,98277.38
2023-11-30T16:53:34.010Z,98268.03
2023-11-30T16:56:00.561Z,98265.53
2023-11-30T16:58:30.413Z,98255.72
2023-11-30T17:00:57.424Z,98255.78
2023-11-30T17:03:26.722Z,98261.72
2023-11-30T17:05:53.787Z,98226.03
2023-11-30T17:08:20.503Z,98261.63
2023-11-30T17:10:47.507Z,98258.53
2023-11-30T17:13:14.177Z,98241.56
2023-11-30T17:15:40.708Z,98233.25
2023-11-30T17:18:07.265Z,98250.88
2023-11-30T17:20:33.746Z,98236.59
2023-11-30T17:23:00.288Z,98240.16
2023-11-30T17:25:26.756Z,98247.47
2023-11-30T17:27:54.843Z,98238.47
2023-11-30T17:30:21.493Z,98225.75
2023-11-30T17:32:48.222Z,98225.84
2023-11-30T17:35:15.097Z,98226.28
2023-11-30T17:37:41.797Z,98217.88
2023-11-30T17:40:11.695Z,98171.44
2023-11-30T17:42:38.846Z,98199.75
2023-11-30T17:45:06.432Z,98199.47
2023-11-30T17:47:34.437Z,98202.84
2023-11-30T17:50:03.024Z,98190.28
2023-11-30T17:52:30.881Z,98180.69
2023-11-30T17:54:57.427Z,98148.34
2023-11-30T17:57:23.961Z,98164.31
2023-11-30T17:59:50.514Z,98142.41
2023-11-30T18:02:17.099Z,98158.03
2023-11-30T18:04:43.668Z,98145.72
2023-11-30T18:07:11.568Z,98139.00
2023-11-30T18:09:38.621Z,98148.25
2023-11-30T18:12:06.005Z,98138.78
2023-11-30T18:14:33.305Z,98151.34
2023-11-30T18:17:01.314Z,98143.75
2023-11-30T18:19:28.237Z,98134.59
2023-11-30T18:21:54.935Z,98125.50
2023-11-30T18:24:29.973Z,98122.06
2023-11-30T18:26:58.426Z,98116.88
2023-11-30T18:29:25.314Z,98125.19
2023-11-30T18:31:52.561Z,98123.63
2023-11-30T18:34:19.741Z,98123.13
2023-11-30T18:36:46.530Z,98124.09
2023-11-30T18:39:14.555Z,98133.13
2023-11-30T18:41:41.352Z,98139.91
2023-11-30T18:44:08.641Z,98127.47
2023-11-30T18:46:35.227Z,98146.06
2023-11-30T18:49:05.158Z,98133.63
2023-11-30T18:51:32.950Z,98140.72
2023-11-30T18:54:01.037Z,98129.94
2023-11-30T18:56:29.427Z,98098.59
2023-11-30T18:58:56.828Z,98124.75
2023-11-30T19:01:23.460Z,98103.28
2023-11-30T19:03:50.014Z,98116.41
2023-11-30T19:06:18.366Z,98121.44
2023-11-30T19:08:46.060Z,98114.81
2023-11-30T19:11:13.183Z,98101.72
2023-11-30T19:13:40.450Z,98084.94
2023-11-30T19:16:07.860Z,98084.91
2023-11-30T19:18:34.458Z,98074.69
2023-11-30T19:21:01.860Z,98088.00
2023-11-30T19:23:28.403Z,98091.25
2023-11-30T19:25:54.881Z,98076.34
2023-11-30T19:28:21.391Z,98071.50
2023-11-30T19:30:48.020Z,98064.84
2023-11-30T19:33:14.588Z,98083.16
2023-11-30T19:35:41.124Z,98079.81
2023-11-30T19:38:07.622Z,98094.25
2023-11-30T19:40:34.157Z,98067.47
2023-11-30T19:43:00.702Z,98087.97
2023-11-30T19:45:27.187Z,98088.94
2023-11-30T19:47:53.778Z,98090.59
2023-11-30T19:50:20.364Z,98095.78
2023-11-30T19:52:46.974Z,98079.94
2023-11-30T19:55:13.500Z,98074.03
2023-11-30T19:57:40.092Z,98083.41
2023-11-30T20:00:07.320Z,98058.41
2023-11-30T20:02:33.891Z,98066.78
2023-11-30T20:05:00.457Z,98091.72
2023-11-30T20:07:27.030Z,98046.41
2023-11-30T20:09:53.596Z,98018.19
2023-11-30T20:12:20.088Z,98074.13
2023-11-30T20:14:46.539Z,98061.53
2023-11-30T20:17:13.014Z,98060.56
2023-11-30T20:19:39.622Z,98051.56
2023-11-30T20:22:06.206Z,98054.09
2023-11-30T20:24:35.220Z,98052.41
2023-11-30T20:27:08.549Z,98052.94
2023-11-30T20:29:35.218Z,98042.28
2023-11-30T20:32:02.066Z,98069.69
2023-11-30T20:34:29.008Z,98066.56
2023-11-30T20:36:56.260Z,98053.78
2023-11-30T20:39:22.985Z,98049.50
2023-11-30T20:41:49.453Z,98054.06
2023-11-30T20:44:15.957Z,98035.56
2023-11-30T20:46:42.551Z,98021.03
2023-11-30T20:49:09.146Z,98040.88
2023-11-30T20:51:35.706Z,97999.56
2023-11-30T20:54:07.442Z,98025.03
2023-11-30T20:56:35.717Z,98028.47
2023-11-30T20:59:02.641Z,98044.44
2023-11-30T21:01:30.470Z,98044.75
2023-11-30T21:03:57.162Z,98050.31
2023-11-30T21:06:24.068Z,98062.22
2023-11-30T21:08:50.674Z,98057.34
2023-11-30T21:11:17.319Z,98039.84
2023-11-30T21:13:43.873Z,98018.00
2023-11-30T21:16:10.518Z,98033.25
2023-11-30T21:18:37.868Z,98030.88
2023-11-30T21:21:04.725Z,98014.84
2023-11-30T21:23:31.249Z,98017.44
2023-11-30T21:25:57.710Z,98026.72
2023-11-30T21:28:24.186Z,98019.78
2023-11-30T21:30:50.794Z,98027.44
2023-11-30T21:33:17.386Z,98038.44
2023-11-30T21:35:43.849Z,98039.34
2023-11-30T21:38:10.306Z,98034.25
2023-11-30T21:40:36.812Z,98036.53
2023-11-30T21:43:03.425Z,98040.69
2023-11-30T21:45:30.059Z,98034.19
2023-11-30T21:47:56.673Z,98022.47
2023-11-30T21:50:25.424Z,98021.66
2023-11-30T21:52:52.878Z,98032.47
2023-11-30T21:55:19.547Z,98035.06
2023-11-30T21:57:46.229Z,97970.75
2023-11-30T22:00:13.895Z,98035.75
2023-11-30T22:02:41.796Z,98013.59
2023-11-30T22:05:08.753Z,98038.44
2023-11-30T22:07:35.313Z,98038.03
2023-11-30T22:10:03.761Z,98022.38
2023-11-30T22:12:33.256Z,98049.03
2023-11-30T22:15:01.077Z,98045.06
2023-11-30T22:17:30.970Z,98046.13
2023-11-30T22:19:58.097Z,98037.72
2023-11-30T22:22:24.692Z,98040.06
2023-11-30T22:24:51.581Z,98049.38
2023-11-30T22:27:18.410Z,98049.25
2023-11-30T22:29:44.959Z,98050.22
2023-11-30T22:32:12.734Z,98037.66
2023-11-30T22:34:39.264Z,98032.50
2023-11-30T22:37:05.887Z,98027.38
2023-11-30T22:39:32.424Z,98035.78
2023-11-30T22:41:58.916Z,98040.03
2023-11-30T22:44:25.497Z,98041.91
2023-11-30T22:46:52.580Z,98044.56
2023-11-30T22:49:20.630Z,97980.03
2023-11-30T22:51:50.207Z,98046.19
2023-11-30T22:54:16.843Z,98054.63
2023-11-30T22:56:43.414Z,98060.22
2023-11-30T22:59:10.007Z,98055.34
2023-11-30T23:01:36.739Z,98051.22
2023-11-30T23:04:03.618Z,98053.53
2023-11-30T23:06:30.305Z,98055.34
2023-11-30T23:08:56.914Z,98054.69
2023-11-30T23:11:23.432Z,98047.22
2023-11-30T23:13:49.950Z,98042.84
2023-11-30T23:16:16.824Z,98044.50
2023-11-30T23:18:43.377Z,98031.88
2023-11-30T23:21:09.922Z,98041.09
2023-11-30T23:23:36.388Z,98045.50
2023-11-30T23:26:03.128Z,98047.94
2023-11-30T23:28:29.690Z,98037.72
2023-11-30T23:30:57.536Z,98040.31
2023-11-30T23:33:24.161Z,98048.81
2023-11-30T23:35:50.665Z,98053.84
2023-11-30T23:38:17.104Z,98055.50
2023-11-30T23:40:43.747Z,98060.56
2023-11-30T23:43:10.313Z,98061.38
2023-11-30T23:45:37.007Z,98030.09
2023-11-30T23:48:03.724Z,98056.34
2023-11-30T23:50:30.286Z,98059.72
2023-11-30T23:52:56.745Z,98066.56
2023-11-30T23:55:23.212Z,98070.03
2023-11-30T23:57:49.735Z,98062.41
